sensor_id;sensor_type;location;lat;lon;timestamp;P1;durP1;ratioP1;P2;durP2;ratioP2
15488;SDS011;7846;48.830;9.116;2022-12-16T00:01:14;37.72;;;22.58;;
15488;SDS011;7846;48.830;9.116;2022-12-16T00:03:41;39.58;;;24.27;;
15488;SDS011;7846;48.830;9.116;2022-12-16T00:06:11;34.95;;;21.77;;
15488;SDS011;7846;48.830;9.116;2022-12-16T00:08:38;39.33;;;24.65;;
15488;SDS011;7846;48.830;9.116;2022-12-16T00:11:05;37.03;;;23.10;;
15488;SDS011;7846;48.830;9.116;2022-12-16T00:13:32;37.85;;;22.73;;
15488;SDS011;7846;48.830;9.116;2022-12-16T00:15:58;36.78;;;22.77;;
15488;SDS011;7846;48.830;9.116;2022-12-16T00:18:24;42.80;;;24.83;;
15488;SDS011;7846;48.830;9.116;2022-12-16T00:20:52;34.67;;;20.73;;
15488;SDS011;7846;48.830;9.116;2022-12-16T00:23:18;33.07;;;21.80;;
15488;SDS011;7846;48.830;9.116;2022-12-16T00:25:45;37.13;;;24.10;;
15488;SDS011;7846;48.830;9.116;2022-12-16T00:28:12;36.97;;;22.50;;
15488;SDS011;7846;48.830;9.116;2022-12-16T00:30:41;38.83;;;22.27;;
15488;SDS011;7846;48.830;9.116;2022-12-16T00:33:08;36.20;;;22.30;;
15488;SDS011;7846;48.830;9.116;2022-12-16T00:35:34;33.38;;;21.33;;
15488;SDS011;7846;48.830;9.116;2022-12-16T00:38:00;38.00;;;22.67;;
15488;SDS011;7846;48.830;9.116;2022-12-16T00:40:26;35.60;;;22.30;;
15488;SDS011;7846;48.830;9.116;2022-12-16T00:42:51;37.53;;;22.53;;
15488;SDS011;7846;48.830;9.116;2022-12-16T00:45:17;36.83;;;22.67;;
15488;SDS011;7846;48.830;9.116;2022-12-16T00:47:47;40.88;;;23.00;;
15488;SDS011;7846;48.830;9.116;2022-12-16T00:50:14;37.72;;;23.10;;
15488;SDS011;7846;48.830;9.116;2022-12-16T00:52:42;37.13;;;23.37;;
15488;SDS011;7846;48.830;9.116;2022-12-16T00:55:08;34.70;;;22.70;;
15488;SDS011;7846;48.830;9.116;2022-12-16T00:57:34;37.60;;;23.07;;
15488;SDS011;7846;48.830;9.116;2022-12-16T00:59:59;38.73;;;23.67;;
15488;SDS011;7846;48.830;9.116;2022-12-16T01:02:28;36.60;;;22.13;;
15488;SDS011;7846;48.830;9.116;2022-12-16T01:04:55;39.17;;;23.33;;
15488;SDS011;7846;48.830;9.116;2022-12-16T01:07:20;39.27;;;24.23;;
15488;SDS011;7846;48.830;9.116;2022-12-16T01:09:46;37.50;;;21.53;;
15488;SDS011;7846;48.830;9.116;2022-12-16T01:12:12;33.75;;;21.25;;
15488;SDS011;7846;48.830;9.116;2022-12-16T01:14:40;39.15;;;22.63;;
15488;SDS011;7846;48.830;9.116;2022-12-16T01:17:05;35.87;;;22.53;;
15488;SDS011;7846;48.830;9.116;2022-12-16T01:19:33;36.08;;;22.35;;
15488;SDS011;7846;48.830;9.116;2022-12-16T01:22:00;35.97;;;21.90;;
15488;SDS011;7846;48.830;9.116;2022-12-16T01:24:26;34.03;;;22.08;;
15488;SDS011;7846;48.830;9.116;2022-12-16T01:26:52;36.55;;;22.02;;
15488;SDS011;7846;48.830;9.116;2022-12-16T01:29:18;41.20;;;23.10;;
15488;SDS011;7846;48.830;9.116;2022-12-16T01:31:43;38.20;;;23.93;;
15488;SDS011;7846;48.830;9.116;2022-12-16T01:34:09;34.72;;;23.67;;
15488;SDS011;7846;48.830;9.116;2022-12-16T01:36:36;37.75;;;22.00;;
15488;SDS011;7846;48.830;9.116;2022-12-16T01:39:01;37.53;;;23.43;;
15488;SDS011;7846;48.830;9.116;2022-12-16T01:41:28;36.15;;;22.60;;
15488;SDS011;7846;48.830;9.116;2022-12-16T01:44:17;38.15;;;22.85;;
15488;SDS011;7846;48.830;9.116;2022-12-16T01:46:44;36.40;;;22.33;;
15488;SDS011;7846;48.830;9.116;2022-12-16T01:49:39;36.40;;;22.23;;
15488;SDS011;7846;48.830;9.116;2022-12-16T01:52:09;34.58;;;20.95;;
15488;SDS011;7846;48.830;9.116;2022-12-16T01:54:39;36.97;;;23.27;;
15488;SDS011;7846;48.830;9.116;2022-12-16T01:57:10;39.40;;;23.80;;
15488;SDS011;7846;48.830;9.116;2022-12-16T01:59:40;39.83;;;23.63;;
15488;SDS011;7846;48.830;9.116;2022-12-16T02:02:11;37.83;;;23.85;;
15488;SDS011;7846;48.830;9.116;2022-12-16T02:04:38;41.13;;;24.08;;
15488;SDS011;7846;48.830;9.116;2022-12-16T02:07:26;38.30;;;23.58;;
15488;SDS011;7846;48.830;9.116;2022-12-16T02:09:52;40.87;;;23.80;;
15488;SDS011;7846;48.830;9.116;2022-12-16T02:12:31;38.50;;;22.83;;
15488;SDS011;7846;48.830;9.116;2022-12-16T02:15:13;37.93;;;21.70;;
15488;SDS011;7846;48.830;9.116;2022-12-16T02:18:10;37.90;;;23.15;;
15488;SDS011;7846;48.830;9.116;2022-12-16T02:32:20;35.58;;;21.23;;
15488;SDS011;7846;48.830;9.116;2022-12-16T02:34:56;31.90;;;18.48;;
15488;SDS011;7846;48.830;9.116;2022-12-16T02:40:10;37.07;;;22.50;;
15488;SDS011;7846;48.830;9.116;2022-12-16T02:42:48;35.70;;;22.00;;
15488;SDS011;7846;48.830;9.116;2022-12-16T02:45:27;39.17;;;23.57;;
15488;SDS011;7846;48.830;9.116;2022-12-16T02:47:55;35.57;;;23.27;;
15488;SDS011;7846;48.830;9.116;2022-12-16T02:50:24;40.00;;;23.30;;
15488;SDS011;7846;48.830;9.116;2022-12-16T02:52:59;35.73;;;22.73;;
15488;SDS011;7846;48.830;9.116;2022-12-16T02:55:50;38.53;;;21.80;;
15488;SDS011;7846;48.830;9.116;2022-12-16T03:01:34;35.30;;;21.50;;
15488;SDS011;7846;48.830;9.116;2022-12-16T03:04:20;35.47;;;21.58;;
15488;SDS011;7846;48.830;9.116;2022-12-16T03:06:49;33.80;;;22.25;;
15488;SDS011;7846;48.830;9.116;2022-12-16T03:09:22;35.22;;;21.83;;
15488;SDS011;7846;48.830;9.116;2022-12-16T03:11:51;35.03;;;22.53;;
15488;SDS011;7846;48.830;9.116;2022-12-16T03:14:19;36.47;;;22.08;;
15488;SDS011;7846;48.830;9.116;2022-12-16T03:16:48;36.92;;;22.42;;
15488;SDS011;7846;48.830;9.116;2022-12-16T03:19:15;35.70;;;22.43;;
15488;SDS011;7846;48.830;9.116;2022-12-16T03:21:42;36.13;;;22.40;;
15488;SDS011;7846;48.830;9.116;2022-12-16T03:24:13;36.93;;;22.27;;
15488;SDS011;7846;48.830;9.116;2022-12-16T03:27:00;33.47;;;20.47;;
15488;SDS011;7846;48.830;9.116;2022-12-16T03:32:21;37.20;;;21.93;;
15488;SDS011;7846;48.830;9.116;2022-12-16T03:35:13;34.15;;;21.08;;
15488;SDS011;7846;48.830;9.116;2022-12-16T03:37:43;30.57;;;20.40;;
15488;SDS011;7846;48.830;9.116;2022-12-16T03:40:11;32.55;;;18.65;;
15488;SDS011;7846;48.830;9.116;2022-12-16T03:42:39;32.65;;;19.25;;
15488;SDS011;7846;48.830;9.116;2022-12-16T03:45:06;30.65;;;18.65;;
15488;SDS011;7846;48.830;9.116;2022-12-16T03:47:38;34.30;;;21.60;;
15488;SDS011;7846;48.830;9.116;2022-12-16T03:50:04;31.00;;;18.75;;
15488;SDS011;7846;48.830;9.116;2022-12-16T03:52:29;33.90;;;19.87;;
15488;SDS011;7846;48.830;9.116;2022-12-16T03:54:57;31.80;;;19.70;;
15488;SDS011;7846;48.830;9.116;2022-12-16T03:57:24;30.83;;;20.17;;
15488;SDS011;7846;48.830;9.116;2022-12-16T03:59:49;30.97;;;19.50;;
15488;SDS011;7846;48.830;9.116;2022-12-16T04:02:15;32.53;;;18.90;;
15488;SDS011;7846;48.830;9.116;2022-12-16T04:04:40;27.43;;;18.00;;
15488;SDS011;7846;48.830;9.116;2022-12-16T04:07:05;31.27;;;19.50;;
15488;SDS011;7846;48.830;9.116;2022-12-16T04:09:48;31.60;;;20.00;;
15488;SDS011;7846;48.830;9.116;2022-12-16T04:12:14;29.52;;;19.67;;
15488;SDS011;7846;48.830;9.116;2022-12-16T04:14:58;31.60;;;20.02;;
15488;SDS011;7846;48.830;9.116;2022-12-16T04:17:46;31.45;;;19.30;;
15488;SDS011;7846;48.830;9.116;2022-12-16T04:20:31;30.27;;;18.80;;
15488;SDS011;7846;48.830;9.116;2022-12-16T04:23:19;34.20;;;20.08;;
15488;SDS011;7846;48.830;9.116;2022-12-16T04:26:04;31.52;;;20.67;;
15488;SDS011;7846;48.830;9.116;2022-12-16T04:28:30;33.87;;;21.73;;
15488;SDS011;7846;48.830;9.116;2022-12-16T04:30:55;31.17;;;20.97;;
15488;SDS011;7846;48.830;9.116;2022-12-16T04:33:21;33.43;;;19.10;;
15488;SDS011;7846;48.830;9.116;2022-12-16T04:36:05;28.10;;;18.63;;
15488;SDS011;7846;48.830;9.116;2022-12-16T04:38:50;28.80;;;17.70;;
15488;SDS011;7846;48.830;9.116;2022-12-16T04:41:34;29.00;;;18.10;;
15488;SDS011;7846;48.830;9.116;2022-12-16T04:44:18;30.37;;;17.57;;
15488;SDS011;7846;48.830;9.116;2022-12-16T04:47:02;26.23;;;16.90;;
15488;SDS011;7846;48.830;9.116;2022-12-16T04:49:46;24.75;;;16.77;;
15488;SDS011;7846;48.830;9.116;2022-12-16T04:52:30;23.23;;;15.75;;
15488;SDS011;7846;48.830;9.116;2022-12-16T04:55:15;23.77;;;16.07;;
15488;SDS011;7846;48.830;9.116;2022-12-16T04:57:59;27.23;;;16.90;;
15488;SDS011;7846;48.830;9.116;2022-12-16T05:00:46;23.27;;;15.07;;
15488;SDS011;7846;48.830;9.116;2022-12-16T05:03:31;25.45;;;15.88;;
15488;SDS011;7846;48.830;9.116;2022-12-16T05:06:18;28.23;;;16.42;;
15488;SDS011;7846;48.830;9.116;2022-12-16T05:09:04;26.80;;;17.33;;
15488;SDS011;7846;48.830;9.116;2022-12-16T05:11:49;24.73;;;16.87;;
15488;SDS011;7846;48.830;9.116;2022-12-16T05:14:33;25.13;;;17.73;;
15488;SDS011;7846;48.830;9.116;2022-12-16T05:17:18;29.38;;;17.63;;
15488;SDS011;7846;48.830;9.116;2022-12-16T05:20:02;27.70;;;16.97;;
15488;SDS011;7846;48.830;9.116;2022-12-16T05:22:47;24.20;;;17.23;;
15488;SDS011;7846;48.830;9.116;2022-12-16T05:25:31;31.77;;;17.73;;
15488;SDS011;7846;48.830;9.116;2022-12-16T05:28:15;25.60;;;17.10;;
15488;SDS011;7846;48.830;9.116;2022-12-16T05:30:59;27.52;;;17.27;;
15488;SDS011;7846;48.830;9.116;2022-12-16T05:33:43;26.90;;;17.83;;
15488;SDS011;7846;48.830;9.116;2022-12-16T05:36:27;25.23;;;17.37;;
15488;SDS011;7846;48.830;9.116;2022-12-16T05:39:11;27.33;;;17.10;;
15488;SDS011;7846;48.830;9.116;2022-12-16T05:41:55;27.90;;;17.25;;
15488;SDS011;7846;48.830;9.116;2022-12-16T05:44:52;27.63;;;17.92;;
15488;SDS011;7846;48.830;9.116;2022-12-16T05:47:36;27.63;;;17.57;;
15488;SDS011;7846;48.830;9.116;2022-12-16T05:50:20;29.73;;;17.00;;
15488;SDS011;7846;48.830;9.116;2022-12-16T05:53:04;25.00;;;16.90;;
15488;SDS011;7846;48.830;9.116;2022-12-16T05:55:49;27.00;;;16.57;;
15488;SDS011;7846;48.830;9.116;2022-12-16T05:58:33;26.47;;;16.80;;
15488;SDS011;7846;48.830;9.116;2022-12-16T06:01:20;28.80;;;16.93;;
15488;SDS011;7846;48.830;9.116;2022-12-16T06:04:04;27.87;;;16.57;;
15488;SDS011;7846;48.830;9.116;2022-12-16T06:06:47;28.20;;;17.43;;
15488;SDS011;7846;48.830;9.116;2022-12-16T06:09:34;26.67;;;16.40;;
15488;SDS011;7846;48.830;9.116;2022-12-16T06:12:18;27.73;;;16.27;;
15488;SDS011;7846;48.830;9.116;2022-12-16T06:15:02;23.03;;;14.80;;
15488;SDS011;7846;48.830;9.116;2022-12-16T06:17:46;24.93;;;16.17;;
15488;SDS011;7846;48.830;9.116;2022-12-16T06:20:33;27.90;;;16.13;;
15488;SDS011;7846;48.830;9.116;2022-12-16T06:23:21;22.10;;;15.18;;
15488;SDS011;7846;48.830;9.116;2022-12-16T06:26:08;26.00;;;16.03;;
15488;SDS011;7846;48.830;9.116;2022-12-16T06:28:53;25.65;;;15.85;;
15488;SDS011;7846;48.830;9.116;2022-12-16T06:31:37;22.95;;;16.27;;
15488;SDS011;7846;48.830;9.116;2022-12-16T06:34:21;40.70;;;20.02;;
15488;SDS011;7846;48.830;9.116;2022-12-16T06:37:08;31.97;;;17.77;;
15488;SDS011;7846;48.830;9.116;2022-12-16T06:39:51;24.05;;;16.38;;
15488;SDS011;7846;48.830;9.116;2022-12-16T06:42:39;25.50;;;16.08;;
15488;SDS011;7846;48.830;9.116;2022-12-16T06:45:24;27.13;;;16.73;;
15488;SDS011;7846;48.830;9.116;2022-12-16T06:48:08;32.27;;;18.43;;
15488;SDS011;7846;48.830;9.116;2022-12-16T06:50:52;34.00;;;19.42;;
15488;SDS011;7846;48.830;9.116;2022-12-16T06:53:36;30.13;;;18.10;;
15488;SDS011;7846;48.830;9.116;2022-12-16T06:56:20;26.20;;;17.17;;
15488;SDS011;7846;48.830;9.116;2022-12-16T06:59:04;24.77;;;17.52;;
15488;SDS011;7846;48.830;9.116;2022-12-16T07:01:50;26.00;;;17.02;;
15488;SDS011;7846;48.830;9.116;2022-12-16T07:04:33;30.23;;;17.60;;
15488;SDS011;7846;48.830;9.116;2022-12-16T07:07:19;27.60;;;15.97;;
15488;SDS011;7846;48.830;9.116;2022-12-16T07:10:06;23.77;;;15.15;;
15488;SDS011;7846;48.830;9.116;2022-12-16T07:12:50;23.40;;;14.38;;
15488;SDS011;7846;48.830;9.116;2022-12-16T07:15:52;19.27;;;14.20;;
15488;SDS011;7846;48.830;9.116;2022-12-16T07:18:36;22.95;;;15.00;;
15488;SDS011;7846;48.830;9.116;2022-12-16T07:21:20;26.30;;;14.67;;
15488;SDS011;7846;48.830;9.116;2022-12-16T07:24:04;20.10;;;13.48;;
15488;SDS011;7846;48.830;9.116;2022-12-16T07:26:49;25.97;;;14.53;;
15488;SDS011;7846;48.830;9.116;2022-12-16T07:29:34;21.77;;;13.83;;
15488;SDS011;7846;48.830;9.116;2022-12-16T07:32:19;25.98;;;15.23;;
15488;SDS011;7846;48.830;9.116;2022-12-16T07:35:11;24.67;;;14.23;;
15488;SDS011;7846;48.830;9.116;2022-12-16T07:37:56;20.43;;;14.27;;
15488;SDS011;7846;48.830;9.116;2022-12-16T07:40:40;18.10;;;13.53;;
15488;SDS011;7846;48.830;9.116;2022-12-16T07:43:23;21.00;;;13.50;;
15488;SDS011;7846;48.830;9.116;2022-12-16T07:46:07;17.67;;;12.73;;
15488;SDS011;7846;48.830;9.116;2022-12-16T07:48:51;19.97;;;13.23;;
15488;SDS011;7846;48.830;9.116;2022-12-16T07:51:36;17.90;;;12.60;;
15488;SDS011;7846;48.830;9.116;2022-12-16T07:54:20;20.07;;;12.63;;
15488;SDS011;7846;48.830;9.116;2022-12-16T07:57:03;16.03;;;11.93;;
15488;SDS011;7846;48.830;9.116;2022-12-16T07:59:50;17.27;;;12.03;;
15488;SDS011;7846;48.830;9.116;2022-12-16T08:02:34;16.93;;;12.03;;
15488;SDS011;7846;48.830;9.116;2022-12-16T08:05:18;16.93;;;12.17;;
15488;SDS011;7846;48.830;9.116;2022-12-16T08:08:05;16.10;;;11.27;;
15488;SDS011;7846;48.830;9.116;2022-12-16T08:10:49;18.23;;;12.48;;
15488;SDS011;7846;48.830;9.116;2022-12-16T08:13:33;16.43;;;11.30;;
15488;SDS011;7846;48.830;9.116;2022-12-16T08:16:17;18.00;;;11.90;;
15488;SDS011;7846;48.830;9.116;2022-12-16T08:19:00;18.47;;;12.23;;
15488;SDS011;7846;48.830;9.116;2022-12-16T08:21:45;17.27;;;12.13;;
15488;SDS011;7846;48.830;9.116;2022-12-16T08:24:29;17.87;;;11.43;;
15488;SDS011;7846;48.830;9.116;2022-12-16T08:27:13;16.33;;;12.23;;
15488;SDS011;7846;48.830;9.116;2022-12-16T08:29:56;16.37;;;11.47;;
15488;SDS011;7846;48.830;9.116;2022-12-16T08:32:40;17.13;;;10.90;;
15488;SDS011;7846;48.830;9.116;2022-12-16T08:35:24;16.57;;;10.97;;
15488;SDS011;7846;48.830;9.116;2022-12-16T08:38:08;16.53;;;11.60;;
15488;SDS011;7846;48.830;9.116;2022-12-16T08:40:53;16.60;;;11.03;;
15488;SDS011;7846;48.830;9.116;2022-12-16T08:43:37;13.83;;;9.67;;
15488;SDS011;7846;48.830;9.116;2022-12-16T08:46:21;12.60;;;9.87;;
15488;SDS011;7846;48.830;9.116;2022-12-16T08:49:05;19.25;;;11.00;;
15488;SDS011;7846;48.830;9.116;2022-12-16T08:51:50;13.17;;;10.00;;
15488;SDS011;7846;48.830;9.116;2022-12-16T08:54:34;14.38;;;8.88;;
15488;SDS011;7846;48.830;9.116;2022-12-16T08:57:17;16.35;;;9.90;;
15488;SDS011;7846;48.830;9.116;2022-12-16T09:00:02;12.67;;;8.90;;
15488;SDS011;7846;48.830;9.116;2022-12-16T09:02:51;14.18;;;9.15;;
15488;SDS011;7846;48.830;9.116;2022-12-16T09:05:37;11.70;;;8.55;;
15488;SDS011;7846;48.830;9.116;2022-12-16T09:08:21;11.13;;;8.57;;
15488;SDS011;7846;48.830;9.116;2022-12-16T09:11:05;11.43;;;8.17;;
15488;SDS011;7846;48.830;9.116;2022-12-16T09:13:48;15.10;;;8.65;;
15488;SDS011;7846;48.830;9.116;2022-12-16T09:16:35;13.27;;;8.83;;
15488;SDS011;7846;48.830;9.116;2022-12-16T09:19:19;15.80;;;8.80;;
15488;SDS011;7846;48.830;9.116;2022-12-16T09:22:03;10.97;;;8.40;;
15488;SDS011;7846;48.830;9.116;2022-12-16T09:24:47;12.23;;;8.43;;
15488;SDS011;7846;48.830;9.116;2022-12-16T09:27:31;12.85;;;8.93;;
15488;SDS011;7846;48.830;9.116;2022-12-16T09:30:15;10.80;;;8.43;;
15488;SDS011;7846;48.830;9.116;2022-12-16T09:33:00;12.23;;;7.87;;
15488;SDS011;7846;48.830;9.116;2022-12-16T09:35:44;11.27;;;8.17;;
15488;SDS011;7846;48.830;9.116;2022-12-16T09:38:30;11.00;;;7.90;;
15488;SDS011;7846;48.830;9.116;2022-12-16T09:50:28;10.60;;;7.93;;
15488;SDS011;7846;48.830;9.116;2022-12-16T09:53:14;10.57;;;7.13;;
15488;SDS011;7846;48.830;9.116;2022-12-16T09:56:03;10.47;;;7.93;;
15488;SDS011;7846;48.830;9.116;2022-12-16T09:58:53;11.35;;;7.53;;
15488;SDS011;7846;48.830;9.116;2022-12-16T10:01:41;13.23;;;7.53;;
15488;SDS011;7846;48.830;9.116;2022-12-16T10:04:29;11.73;;;7.63;;
15488;SDS011;7846;48.830;9.116;2022-12-16T10:07:19;10.70;;;7.70;;
15488;SDS011;7846;48.830;9.116;2022-12-16T10:13:24;10.07;;;7.73;;
15488;SDS011;7846;48.830;9.116;2022-12-16T10:16:48;10.40;;;7.50;;
15488;SDS011;7846;48.830;9.116;2022-12-16T10:19:59;10.37;;;7.60;;
15488;SDS011;7846;48.830;9.116;2022-12-16T10:22:54;12.33;;;7.73;;
15488;SDS011;7846;48.830;9.116;2022-12-16T10:25:48;11.10;;;8.13;;
15488;SDS011;7846;48.830;9.116;2022-12-16T10:28:48;10.77;;;8.53;;
15488;SDS011;7846;48.830;9.116;2022-12-16T10:31:56;11.20;;;8.73;;
15488;SDS011;7846;48.830;9.116;2022-12-16T10:34:41;11.27;;;8.67;;
15488;SDS011;7846;48.830;9.116;2022-12-16T10:37:31;10.67;;;8.30;;
15488;SDS011;7846;48.830;9.116;2022-12-16T10:40:27;13.10;;;8.77;;
15488;SDS011;7846;48.830;9.116;2022-12-16T10:43:17;11.07;;;8.20;;
15488;SDS011;7846;48.830;9.116;2022-12-16T10:46:07;11.77;;;8.87;;
15488;SDS011;7846;48.830;9.116;2022-12-16T10:49:00;11.30;;;8.50;;
15488;SDS011;7846;48.830;9.116;2022-12-16T10:51:44;13.50;;;9.23;;
15488;SDS011;7846;48.830;9.116;2022-12-16T10:58:35;11.27;;;8.10;;
15488;SDS011;7846;48.830;9.116;2022-12-16T11:01:02;12.13;;;8.67;;
15488;SDS011;7846;48.830;9.116;2022-12-16T11:04:21;10.37;;;7.50;;
15488;SDS011;7846;48.830;9.116;2022-12-16T11:10:23;13.73;;;8.40;;
15488;SDS011;7846;48.830;9.116;2022-12-16T11:18:58;10.87;;;8.60;;
15488;SDS011;7846;48.830;9.116;2022-12-16T11:21:43;11.27;;;7.63;;
15488;SDS011;7846;48.830;9.116;2022-12-16T11:24:27;10.00;;;8.20;;
15488;SDS011;7846;48.830;9.116;2022-12-16T11:27:30;12.87;;;9.00;;
15488;SDS011;7846;48.830;9.116;2022-12-16T11:30:21;12.53;;;8.67;;
15488;SDS011;7846;48.830;9.116;2022-12-16T11:33:11;17.60;;;12.23;;
15488;SDS011;7846;48.830;9.116;2022-12-16T11:36:04;14.07;;;8.70;;
15488;SDS011;7846;48.830;9.116;2022-12-16T11:38:56;11.70;;;8.47;;
15488;SDS011;7846;48.830;9.116;2022-12-16T11:41:43;11.27;;;7.23;;
15488;SDS011;7846;48.830;9.116;2022-12-16T11:44:34;11.47;;;9.00;;
15488;SDS011;7846;48.830;9.116;2022-12-16T11:47:38;12.23;;;8.60;;
15488;SDS011;7846;48.830;9.116;2022-12-16T11:50:30;12.97;;;9.03;;
15488;SDS011;7846;48.830;9.116;2022-12-16T11:53:31;12.63;;;8.30;;
15488;SDS011;7846;48.830;9.116;2022-12-16T11:56:22;13.00;;;8.40;;
15488;SDS011;7846;48.830;9.116;2022-12-16T11:59:14;10.90;;;8.17;;
15488;SDS011;7846;48.830;9.116;2022-12-16T12:02:14;12.10;;;8.27;;
15488;SDS011;7846;48.830;9.116;2022-12-16T12:05:09;12.60;;;8.30;;
15488;SDS011;7846;48.830;9.116;2022-12-16T12:07:57;10.60;;;7.90;;
15488;SDS011;7846;48.830;9.116;2022-12-16T12:11:10;10.50;;;7.50;;
15488;SDS011;7846;48.830;9.116;2022-12-16T12:14:23;10.17;;;7.50;;
15488;SDS011;7846;48.830;9.116;2022-12-16T12:24:18;12.23;;;7.23;;
15488;SDS011;7846;48.830;9.116;2022-12-16T12:26:56;10.37;;;7.20;;
15488;SDS011;7846;48.830;9.116;2022-12-16T12:30:09;13.17;;;8.27;;
15488;SDS011;7846;48.830;9.116;2022-12-16T12:38:51;9.80;;;7.13;;
15488;SDS011;7846;48.830;9.116;2022-12-16T12:51:02;11.03;;;7.27;;
15488;SDS011;7846;48.830;9.116;2022-12-16T12:56:55;12.23;;;6.80;;
15488;SDS011;7846;48.830;9.116;2022-12-16T12:59:53;8.23;;;6.60;;
15488;SDS011;7846;48.830;9.116;2022-12-16T13:02:45;9.87;;;6.77;;
15488;SDS011;7846;48.830;9.116;2022-12-16T13:05:40;12.17;;;7.20;;
15488;SDS011;7846;48.830;9.116;2022-12-16T13:14:54;9.47;;;7.47;;
15488;SDS011;7846;48.830;9.116;2022-12-16T13:20:52;8.87;;;6.63;;
15488;SDS011;7846;48.830;9.116;2022-12-16T13:23:39;8.93;;;6.83;;
15488;SDS011;7846;48.830;9.116;2022-12-16T13:26:25;10.83;;;7.30;;
15488;SDS011;7846;48.830;9.116;2022-12-16T13:35:37;11.37;;;7.23;;
15488;SDS011;7846;48.830;9.116;2022-12-16T13:38:16;11.47;;;6.77;;
15488;SDS011;7846;48.830;9.116;2022-12-16T13:41:04;9.97;;;7.30;;
15488;SDS011;7846;48.830;9.116;2022-12-16T13:44:12;12.53;;;7.37;;
15488;SDS011;7846;48.830;9.116;2022-12-16T13:53:24;9.93;;;5.90;;
15488;SDS011;7846;48.830;9.116;2022-12-16T13:56:12;8.53;;;6.87;;
15488;SDS011;7846;48.830;9.116;2022-12-16T13:58:59;10.53;;;6.73;;
15488;SDS011;7846;48.830;9.116;2022-12-16T14:01:50;10.02;;;6.97;;
15488;SDS011;7846;48.830;9.116;2022-12-16T14:04:38;8.93;;;6.50;;
15488;SDS011;7846;48.830;9.116;2022-12-16T14:07:26;11.50;;;7.15;;
15488;SDS011;7846;48.830;9.116;2022-12-16T14:10:23;10.18;;;7.10;;
15488;SDS011;7846;48.830;9.116;2022-12-16T14:13:26;8.13;;;6.83;;
15488;SDS011;7846;48.830;9.116;2022-12-16T14:16:39;10.37;;;7.20;;
15488;SDS011;7846;48.830;9.116;2022-12-16T14:22:36;9.27;;;7.00;;
15488;SDS011;7846;48.830;9.116;2022-12-16T14:25:30;11.20;;;7.07;;
15488;SDS011;7846;48.830;9.116;2022-12-16T14:31:25;9.93;;;6.83;;
15488;SDS011;7846;48.830;9.116;2022-12-16T14:34:12;9.53;;;7.80;;
15488;SDS011;7846;48.830;9.116;2022-12-16T14:36:58;10.50;;;7.43;;
15488;SDS011;7846;48.830;9.116;2022-12-16T14:39:42;9.43;;;7.10;;
15488;SDS011;7846;48.830;9.116;2022-12-16T14:42:27;10.77;;;7.07;;
15488;SDS011;7846;48.830;9.116;2022-12-16T14:45:19;9.10;;;7.07;;
15488;SDS011;7846;48.830;9.116;2022-12-16T14:51:19;9.47;;;7.07;;
15488;SDS011;7846;48.830;9.116;2022-12-16T14:54:22;8.63;;;6.83;;
15488;SDS011;7846;48.830;9.116;2022-12-16T14:57:19;9.90;;;7.83;;
15488;SDS011;7846;48.830;9.116;2022-12-16T15:02:56;9.23;;;7.10;;
15488;SDS011;7846;48.830;9.116;2022-12-16T15:05:45;11.05;;;7.60;;
15488;SDS011;7846;48.830;9.116;2022-12-16T15:08:33;9.43;;;7.13;;
15488;SDS011;7846;48.830;9.116;2022-12-16T15:11:31;8.27;;;6.23;;
15488;SDS011;7846;48.830;9.116;2022-12-16T15:14:18;10.27;;;7.10;;
15488;SDS011;7846;48.830;9.116;2022-12-16T15:18:09;10.57;;;7.40;;
15488;SDS011;7846;48.830;9.116;2022-12-16T15:20:27;8.90;;;6.67;;
15488;SDS011;7846;48.830;9.116;2022-12-16T15:23:20;8.23;;;6.43;;
15488;SDS011;7846;48.830;9.116;2022-12-16T15:26:08;8.60;;;6.43;;
15488;SDS011;7846;48.830;9.116;2022-12-16T15:28:59;8.73;;;6.47;;
15488;SDS011;7846;48.830;9.116;2022-12-16T15:31:44;9.82;;;6.72;;
15488;SDS011;7846;48.830;9.116;2022-12-16T15:34:35;9.77;;;6.93;;
15488;SDS011;7846;48.830;9.116;2022-12-16T15:37:30;9.47;;;7.17;;
15488;SDS011;7846;48.830;9.116;2022-12-16T15:40:21;9.13;;;7.27;;
15488;SDS011;7846;48.830;9.116;2022-12-16T15:43:17;9.50;;;7.13;;
15488;SDS011;7846;48.830;9.116;2022-12-16T15:46:23;12.65;;;6.68;;
15488;SDS011;7846;48.830;9.116;2022-12-16T15:49:22;9.70;;;7.27;;
15488;SDS011;7846;48.830;9.116;2022-12-16T15:58:13;11.07;;;7.70;;
15488;SDS011;7846;48.830;9.116;2022-12-16T16:01:05;10.10;;;7.50;;
15488;SDS011;7846;48.830;9.116;2022-12-16T16:03:51;9.03;;;7.30;;
15488;SDS011;7846;48.830;9.116;2022-12-16T16:06:37;13.57;;;7.63;;
15488;SDS011;7846;48.830;9.116;2022-12-16T16:09:26;9.43;;;7.83;;
15488;SDS011;7846;48.830;9.116;2022-12-16T16:12:14;10.40;;;7.40;;
15488;SDS011;7846;48.830;9.116;2022-12-16T16:15:02;9.80;;;7.90;;
15488;SDS011;7846;48.830;9.116;2022-12-16T16:17:53;9.73;;;7.93;;
15488;SDS011;7846;48.830;9.116;2022-12-16T16:20:38;9.43;;;7.70;;
15488;SDS011;7846;48.830;9.116;2022-12-16T16:23:22;10.83;;;8.13;;
15488;SDS011;7846;48.830;9.116;2022-12-16T16:26:09;11.48;;;8.32;;
15488;SDS011;7846;48.830;9.116;2022-12-16T16:28:58;14.30;;;8.47;;
15488;SDS011;7846;48.830;9.116;2022-12-16T16:31:42;10.23;;;7.63;;
15488;SDS011;7846;48.830;9.116;2022-12-16T16:34:28;11.13;;;8.13;;
15488;SDS011;7846;48.830;9.116;2022-12-16T16:37:13;11.73;;;8.90;;
15488;SDS011;7846;48.830;9.116;2022-12-16T16:39:58;13.87;;;9.27;;
15488;SDS011;7846;48.830;9.116;2022-12-16T16:42:43;12.17;;;9.20;;
15488;SDS011;7846;48.830;9.116;2022-12-16T16:45:26;12.57;;;9.27;;
15488;SDS011;7846;48.830;9.116;2022-12-16T16:48:11;14.63;;;12.40;;
15488;SDS011;7846;48.830;9.116;2022-12-16T16:50:58;15.87;;;11.43;;
15488;SDS011;7846;48.830;9.116;2022-12-16T16:53:43;15.47;;;11.90;;
15488;SDS011;7846;48.830;9.116;2022-12-16T16:56:28;18.50;;;13.18;;
15488;SDS011;7846;48.830;9.116;2022-12-16T16:59:17;16.57;;;11.37;;
15488;SDS011;7846;48.830;9.116;2022-12-16T17:02:10;14.77;;;10.87;;
15488;SDS011;7846;48.830;9.116;2022-12-16T17:04:59;14.10;;;10.30;;
15488;SDS011;7846;48.830;9.116;2022-12-16T17:07:45;16.87;;;10.77;;
15488;SDS011;7846;48.830;9.116;2022-12-16T17:10:29;15.57;;;10.63;;
15488;SDS011;7846;48.830;9.116;2022-12-16T17:13:12;16.83;;;10.75;;
15488;SDS011;7846;48.830;9.116;2022-12-16T17:15:56;14.47;;;10.37;;
15488;SDS011;7846;48.830;9.116;2022-12-16T17:18:40;14.35;;;10.02;;
15488;SDS011;7846;48.830;9.116;2022-12-16T17:21:24;14.23;;;10.57;;
15488;SDS011;7846;48.830;9.116;2022-12-16T17:24:08;14.17;;;10.50;;
15488;SDS011;7846;48.830;9.116;2022-12-16T17:26:52;14.73;;;10.67;;
15488;SDS011;7846;48.830;9.116;2022-12-16T17:29:36;13.93;;;10.57;;
15488;SDS011;7846;48.830;9.116;2022-12-16T17:32:19;13.88;;;10.07;;
15488;SDS011;7846;48.830;9.116;2022-12-16T17:35:03;14.40;;;11.48;;
15488;SDS011;7846;48.830;9.116;2022-12-16T17:37:47;14.67;;;10.90;;
15488;SDS011;7846;48.830;9.116;2022-12-16T17:40:34;15.82;;;10.95;;
15488;SDS011;7846;48.830;9.116;2022-12-16T17:43:19;13.83;;;10.20;;
15488;SDS011;7846;48.830;9.116;2022-12-16T17:46:08;12.80;;;9.87;;
15488;SDS011;7846;48.830;9.116;2022-12-16T17:48:54;14.20;;;10.10;;
15488;SDS011;7846;48.830;9.116;2022-12-16T17:51:41;12.53;;;9.87;;
15488;SDS011;7846;48.830;9.116;2022-12-16T17:54:25;14.68;;;10.50;;
15488;SDS011;7846;48.830;9.116;2022-12-16T17:57:12;13.63;;;10.00;;
15488;SDS011;7846;48.830;9.116;2022-12-16T17:59:56;13.63;;;9.53;;
15488;SDS011;7846;48.830;9.116;2022-12-16T18:02:40;11.85;;;9.45;;
15488;SDS011;7846;48.830;9.116;2022-12-16T18:05:25;14.30;;;10.23;;
15488;SDS011;7846;48.830;9.116;2022-12-16T18:08:12;15.88;;;13.02;;